Time;durP1;ratioP1;P1;durP2;ratioP2;P2;SDS_P1;SDS_P2;PMS_P1;PMS_P2;Temp;Humidity;BMP_temperature;BMP_pressure;BME280_temperature;BME280_humidity;BME280_pressure;Samples;Min_cycle;Max_cycle;Signal;HPM_P1;HPM_P2
2021/12/01 06:01:17;;;;;;;2.03;0.50;;;7.10;99.90;;;;;;5555385;23;19926;-77
2021/12/01 06:03:44;;;;;;;1.10;0.30;;;7.10;99.90;;;;;;4973758;28;20130;-79
2021/12/01 06:06:12;;;;;;;1.63;0.50;;;7.10;99.90;;;;;;4972583;28;20089;-80
2021/12/01 06:08:39;;;;;;;1.02;0.30;;;7.10;99.90;;;;;;4973544;28;20142;-81
2021/12/01 06:11:06;;;;;;;0.80;0.40;;;7.20;99.90;;;;;;4973583;28;20046;-78
2021/12/01 06:13:33;;;;;;;1.00;0.38;;;7.20;99.90;;;;;;4973493;28;20144;-80
2021/12/01 06:16:00;;;;;;;1.17;0.40;;;7.20;99.90;;;;;;4974010;28;20130;-80
2021/12/01 06:18:30;;;;;;;0.50;0.30;;;7.20;99.90;;;;;;4976054;28;20057;-78
2021/12/01 06:20:57;;;;;;;1.83;0.60;;;7.30;99.90;;;;;;4973850;28;20055;-78
2021/12/01 06:23:24;;;;;;;1.00;0.40;;;7.30;99.90;;;;;;4973542;28;20050;-78
2021/12/01 06:25:51;;;;;;;0.55;0.30;;;7.30;99.90;;;;;;4973279;28;20046;-79
2021/12/01 06:28:19;;;;;;;1.30;0.40;;;7.30;99.90;;;;;;4973206;28;20393;-78
2021/12/01 06:30:46;;;;;;;1.13;0.40;;;7.30;99.90;;;;;;4973239;28;20043;-79
2021/12/01 06:33:13;;;;;;;1.08;0.30;;;7.40;99.90;;;;;;4973183;28;20057;-80
2021/12/01 06:35:46;;;;;;;0.77;0.30;;;7.40;99.90;;;;;;4973124;28;20134;-78
2021/12/01 06:38:13;;;;;;;0.88;0.32;;;7.40;99.90;;;;;;4973171;28;20066;-79
2021/12/01 06:40:40;;;;;;;1.42;0.40;;;7.40;99.90;;;;;;4973206;28;20055;-77
2021/12/01 06:43:07;;;;;;;1.15;0.30;;;7.40;99.90;;;;;;4973930;28;20086;-78
2021/12/01 06:45:34;;;;;;;0.90;0.43;;;7.40;99.90;;;;;;4973844;28;20057;-77
2021/12/01 06:48:01;;;;;;;2.35;0.45;;;7.40;99.90;;;;;;4976474;28;20196;-76
2021/12/01 06:50:29;;;;;;;2.45;0.50;;;7.40;99.90;;;;;;4977019;28;20078;-78
2021/12/01 06:52:57;;;;;;;1.00;0.30;;;7.40;99.90;;;;;;4973712;28;20144;-79
2021/12/01 06:55:24;;;;;;;1.55;0.30;;;7.40;99.90;;;;;;4972960;28;20082;-79
2021/12/01 06:57:51;;;;;;;1.63;0.60;;;7.40;99.90;;;;;;4973513;28;20146;-78
2021/12/01 07:00:20;;;;;;;1.25;0.43;;;7.40;99.90;;;;;;4973209;28;20130;-79
2021/12/01 07:02:47;;;;;;;1.10;0.40;;;7.40;99.90;;;;;;4972067;28;20142;-80
2021/12/01 07:05:15;;;;;;;1.23;0.45;;;7.40;99.90;;;;;;4972144;28;20134;-78
2021/12/01 07:07:42;;;;;;;0.77;0.30;;;7.40;99.80;;;;;;4971867;28;20142;-81
2021/12/01 07:10:13;;;;;;;1.13;0.30;;;7.50;99.80;;;;;;4971869;28;20487;-79
2021/12/01 07:12:41;;;;;;;0.88;0.30;;;7.50;99.60;;;;;;4971992;28;20568;-79
2021/12/01 07:15:10;;;;;;;2.13;0.60;;;7.50;99.50;;;;;;4972194;28;20137;-80
2021/12/01 07:17:37;;;;;;;0.45;0.20;;;7.50;99.40;;;;;;4973890;28;20057;-79
2021/12/01 07:20:06;;;;;;;1.30;0.50;;;7.60;99.30;;;;;;4975247;28;20077;-77
2021/12/01 07:22:34;;;;;;;1.25;0.40;;;7.60;99.10;;;;;;4975312;28;20133;-78
2021/12/01 07:25:01;;;;;;;0.75;0.20;;;7.70;98.80;;;;;;4975717;28;20138;-79
2021/12/01 07:27:29;;;;;;;2.05;0.22;;;7.70;98.80;;;;;;4977327;28;20428;-79
2021/12/01 07:29:56;;;;;;;1.10;0.30;;;7.70;98.60;;;;;;4975374;28;20137;-79
2021/12/01 07:32:24;;;;;;;0.75;0.20;;;7.70;98.60;;;;;;4975586;28;20046;-77
2021/12/01 07:34:51;;;;;;;0.88;0.30;;;7.80;98.40;;;;;;4974970;28;20120;-77
2021/12/01 07:37:19;;;;;;;1.23;0.50;;;7.70;98.30;;;;;;4975154;28;20133;-77
2021/12/01 07:39:47;;;;;;;0.77;0.28;;;7.80;98.30;;;;;;4975510;28;20057;-76
2021/12/01 07:42:16;;;;;;;1.23;0.40;;;7.80;98.10;;;;;;4978760;28;20138;-77
2021/12/01 07:44:45;;;;;;;0.95;0.30;;;7.80;97.90;;;;;;4975453;28;20086;-77
2021/12/01 07:47:12;;;;;;;1.20;0.50;;;7.80;97.80;;;;;;4975442;28;20061;-77
2021/12/01 07:49:39;;;;;;;0.70;0.10;;;7.90;97.70;;;;;;4975780;28;20043;-78
2021/12/01 07:52:07;;;;;;;1.27;0.40;;;7.90;97.70;;;;;;4975661;28;20047;-79
2021/12/01 07:54:35;;;;;;;1.17;0.38;;;7.90;97.50;;;;;;4975146;28;20133;-78
2021/12/01 07:57:02;;;;;;;1.67;0.50;;;8.00;97.50;;;;;;4974796;28;20085;-78
2021/12/01 07:59:29;;;;;;;1.02;0.30;;;8.00;97.70;;;;;;4974964;28;20074;-80
2021/12/01 08:01:58;;;;;;;0.90;0.40;;;8.00;97.40;;;;;;4937377;28;1115148;-78
2021/12/01 08:04:25;;;;;;;1.17;0.50;;;8.10;97.40;;;;;;4976199;28;20078;-78
2021/12/01 08:06:54;;;;;;;1.42;0.40;;;8.00;97.40;;;;;;4977468;28;20058;-80
2021/12/01 08:09:21;;;;;;;1.38;0.60;;;8.10;97.20;;;;;;4975977;28;20051;-78
2021/12/01 08:11:48;;;;;;;1.95;0.60;;;8.10;97.20;;;;;;4976335;28;20130;-78
2021/12/01 08:14:15;;;;;;;1.15;0.30;;;8.10;97.10;;;;;;4976211;28;20129;-78
2021/12/01 08:16:43;;;;;;;0.75;0.32;;;8.20;96.90;;;;;;4976633;28;20062;-76
2021/12/01 08:19:11;;;;;;;1.77;0.40;;;8.20;96.90;;;;;;4976171;28;20130;-78
2021/12/01 08:21:38;;;;;;;1.05;0.40;;;8.20;96.90;;;;;;4976100;28;20135;-77
2021/12/01 08:24:06;;;;;;;0.52;0.28;;;8.20;96.90;;;;;;4975985;28;20049;-79
2021/12/01 08:26:33;;;;;;;0.93;0.40;;;8.30;96.80;;;;;;4976016;28;20090;-78
2021/12/01 08:29:00;;;;;;;0.85;0.35;;;8.30;96.90;;;;;;4975072;28;20583;-78
2021/12/01 08:31:27;;;;;;;2.00;0.50;;;8.30;96.90;;;;;;4975446;28;20046;-77
2021/12/01 08:33:54;;;;;;;1.10;0.40;;;8.30;96.70;;;;;;4975380;28;20138;-78
2021/12/01 08:36:23;;;;;;;1.15;0.43;;;8.40;96.80;;;;;;4975817;28;20137;-77
2021/12/01 08:38:50;;;;;;;1.77;0.50;;;8.40;96.70;;;;;;4976524;28;20089;-79
2021/12/01 08:41:17;;;;;;;1.30;0.50;;;8.50;96.80;;;;;;4976257;28;20046;-77
2021/12/01 08:43:44;;;;;;;0.43;0.30;;;8.50;96.70;;;;;;4975507;28;20150;-79
2021/12/01 08:46:12;;;;;;;1.17;0.60;;;8.50;96.70;;;;;;4975695;28;20401;-78
2021/12/01 08:48:40;;;;;;;1.58;0.40;;;8.60;96.70;;;;;;4975718;28;20475;-79
2021/12/01 08:51:08;;;;;;;0.85;0.40;;;8.60;96.70;;;;;;4975439;28;20082;-79
2021/12/01 08:53:41;;;;;;;1.15;0.25;;;8.70;96.60;;;;;;4975203;28;20057;-79
2021/12/01 08:56:08;;;;;;;1.08;0.40;;;8.70;96.60;;;;;;4974986;28;20050;-79
2021/12/01 08:58:36;;;;;;;0.82;0.30;;;8.80;96.60;;;;;;4975348;28;20172;-78
2021/12/01 09:01:04;;;;;;;0.55;0.20;;;8.80;96.50;;;;;;4973819;28;20467;-78
2021/12/01 09:03:31;;;;;;;1.10;0.32;;;8.90;96.50;;;;;;4975149;28;20141;-80
2021/12/01 09:05:59;;;;;;;1.13;0.35;;;8.90;96.40;;;;;;4975442;28;20575;-80
2021/12/01 09:08:26;;;;;;;0.50;0.20;;;9.00;96.20;;;;;;4975267;28;20599;-78
2021/12/01 09:10:58;;;;;;;1.30;0.43;;;9.00;96.20;;;;;;4975065;28;20082;-78
2021/12/01 09:13:27;;;;;;;2.45;0.30;;;9.10;96.10;;;;;;4975614;28;20411;-78
2021/12/01 09:15:55;;;;;;;0.63;0.20;;;9.10;96.10;;;;;;4974717;28;20142;-77
2021/12/01 09:18:24;;;;;;;1.17;0.20;;;9.20;96.10;;;;;;4975166;28;20389;-78
2021/12/01 09:20:52;;;;;;;2.15;0.30;;;9.20;96.00;;;;;;4975357;28;20078;-77
2021/12/01 09:23:20;;;;;;;0.90;0.28;;;9.20;96.00;;;;;;4974707;28;20141;-77
2021/12/01 09:25:48;;;;;;;0.38;0.15;;;9.30;96.00;;;;;;4975300;28;20129;-80
2021/12/01 09:28:22;;;;;;;0.65;0.20;;;9.30;96.30;;;;;;4975334;28;20158;-80
2021/12/01 09:30:50;;;;;;;0.80;0.30;;;9.40;96.20;;;;;;4975188;28;20058;-77
2021/12/01 09:33:17;;;;;;;0.55;0.28;;;9.50;96.30;;;;;;4974857;28;20149;-80
2021/12/01 09:35:46;;;;;;;1.48;0.70;;;9.60;96.20;;;;;;4975843;28;20054;-78
2021/12/01 09:38:16;;;;;;;0.47;0.20;;;9.70;96.20;;;;;;4974902;28;20062;-77
2021/12/01 09:40:47;;;;;;;0.73;0.30;;;9.70;96.00;;;;;;4974985;28;20051;-78
2021/12/01 09:43:16;;;;;;;0.90;0.35;;;9.80;96.00;;;;;;4974919;28;20124;-78
2021/12/01 09:45:44;;;;;;;1.73;0.40;;;9.90;95.90;;;;;;4974899;28;20449;-79
2021/12/01 09:48:11;;;;;;;1.33;0.38;;;9.90;96.00;;;;;;4974451;28;20047;-79
2021/12/01 09:50:39;;;;;;;1.20;0.20;;;9.90;96.00;;;;;;4974748;28;20043;-79
2021/12/01 09:53:06;;;;;;;1.20;0.43;;;10.00;95.80;;;;;;4974285;28;20047;-78
2021/12/01 09:55:35;;;;;;;1.00;0.30;;;10.00;95.80;;;;;;4974456;28;20142;-79
2021/12/01 09:58:07;;;;;;;0.98;0.30;;;10.00;95.80;;;;;;4974779;28;20050;-78
2021/12/01 10:00:37;;;;;;;0.85;0.17;;;10.00;95.80;;;;;;4974447;28;20141;-78
2021/12/01 10:03:06;;;;;;;0.57;0.25;;;10.00;95.60;;;;;;4974545;28;20563;-77
2021/12/01 10:06:00;;;;;;;0.82;0.20;;;10.00;95.70;;;;;;4974424;28;20592;-77
2021/12/01 10:08:30;;;;;;;0.45;0.20;;;10.00;95.80;;;;;;4973864;28;20098;-76
2021/12/01 10:10:58;;;;;;;0.15;0.10;;;10.00;95.80;;;;;;4974054;28;20138;-77
2021/12/01 10:13:30;;;;;;;0.30;0.13;;;10.10;95.60;;;;;;4974460;28;20575;-77
2021/12/01 10:16:02;;;;;;;1.25;0.20;;;10.10;95.60;;;;;;4974524;28;20058;-76
2021/12/01 10:18:36;;;;;;;0.80;0.20;;;10.10;95.80;;;;;;4974412;28;20125;-77
2021/12/01 10:21:09;;;;;;;0.68;0.30;;;10.10;95.70;;;;;;4974100;28;20051;-78
2021/12/01 10:23:41;;;;;;;0.95;0.20;;;10.20;95.60;;;;;;4973871;28;20138;-77
2021/12/01 10:26:23;;;;;;;0.80;0.20;;;10.20;95.70;;;;;;4973922;28;20103;-79
2021/12/01 10:28:53;;;;;;;1.58;0.35;;;10.20;95.60;;;;;;4973706;28;20496;-77
2021/12/01 10:31:51;;;;;;;0.38;0.20;;;10.20;95.50;;;;;;4974275;28;20141;-80
2021/12/01 10:34:26;;;;;;;1.38;0.35;;;10.30;95.60;;;;;;4974042;28;20125;-78
2021/12/01 10:37:12;;;;;;;0.22;0.20;;;10.30;95.50;;;;;;4974300;28;20119;-78
2021/12/01 10:39:43;;;;;;;0.63;0.28;;;10.30;95.40;;;;;;4973525;28;20464;-77
2021/12/01 10:42:12;;;;;;;0.55;0.20;;;10.30;95.40;;;;;;4973926;28;20078;-78
2021/12/01 10:44:57;;;;;;;1.50;0.40;;;10.30;95.50;;;;;;4970234;28;20043;-79
2021/12/01 10:47:26;;;;;;;0.52;0.22;;;10.30;95.50;;;;;;4963963;28;20051;-76
2021/12/01 10:49:58;;;;;;;0.63;0.25;;;10.30;95.40;;;;;;4973208;28;20081;-79
2021/12/01 10:52:35;;;;;;;0.75;0.30;;;10.30;95.50;;;;;;4972897;28;20062;-81
2021/12/01 10:55:09;;;;;;;0.90;0.32;;;10.30;95.50;;;;;;4973658;28;20507;-79
2021/12/01 10:57:40;;;;;;;0.73;0.30;;;10.30;95.60;;;;;;4974616;28;20047;-80
2021/12/01 11:00:19;;;;;;;1.30;0.32;;;10.30;95.70;;;;;;4961715;28;20425;-79
2021/12/01 11:02:48;;;;;;;0.60;0.20;;;10.30;95.70;;;;;;4955862;28;20142;-79
2021/12/01 11:05:30;;;;;;;1.33;0.38;;;10.30;95.60;;;;;;4973137;28;20137;-78
2021/12/01 11:07:58;;;;;;;0.60;0.30;;;10.20;95.90;;;;;;4972989;28;20508;-77
2021/12/01 11:10:26;;;;;;;0.65;0.20;;;10.20;95.90;;;;;;4969332;28;20130;-77
2021/12/01 11:12:59;;;;;;;1.27;0.30;;;10.20;96.00;;;;;;4973191;28;20058;-77
2021/12/01 11:15:30;;;;;;;1.10;0.30;;;10.20;96.00;;;;;;4968575;28;20043;-80
2021/12/01 11:18:00;;;;;;;1.70;0.57;;;10.20;96.10;;;;;;4972922;28;20508;-79
2021/12/01 11:20:44;;;;;;;1.38;0.30;;;10.30;96.40;;;;;;4972894;28;20049;-78
2021/12/01 11:23:20;;;;;;;0.45;0.20;;;10.20;96.30;;;;;;4967154;28;20126;-78
2021/12/01 11:25:50;;;;;;;1.15;0.30;;;10.30;96.20;;;;;;4953560;28;20125;-78
2021/12/01 11:28:20;;;;;;;0.93;0.28;;;10.30;96.20;;;;;;4953545;28;20127;-79
2021/12/01 11:30:51;;;;;;;1.20;0.40;;;10.40;96.30;;;;;;4953935;29;20478;-77
2021/12/01 11:33:21;;;;;;;0.98;0.40;;;10.40;96.30;;;;;;4958149;28;20142;-80
2021/12/01 11:35:51;;;;;;;0.40;0.30;;;10.40;96.20;;;;;;4959361;29;20071;-79
2021/12/01 11:38:21;;;;;;;0.45;0.20;;;10.50;96.30;;;;;;4955144;29;20093;-81
2021/12/01 11:40:49;;;;;;;2.05;0.50;;;10.50;96.30;;;;;;4953779;29;20135;-81
2021/12/01 11:43:19;;;;;;;0.77;0.30;;;10.60;96.10;;;;;;4954979;29;20051;-83
2021/12/01 11:45:47;;;;;;;1.08;0.30;;;10.70;95.90;;;;;;4955212;28;20134;-86
2021/12/01 11:48:19;;;;;;;1.23;0.65;;;10.80;95.80;;;;;;4957400;28;20071;-86
2021/12/01 11:50:56;;;;;;;1.50;0.28;;;11.00;95.70;;;;;;4954493;29;20138;-85
2021/12/01 11:53:25;;;;;;;0.98;0.40;;;11.00;95.60;;;;;;4952980;29;20043;-86
2021/12/01 11:55:59;;;;;;;0.73;0.30;;;11.10;95.50;;;;;;4961573;28;20050;-85
2021/12/01 11:59:07;;;;;;;1.15;0.30;;;11.10;95.50;;;;;;4967493;28;20054;-85
2021/12/01 12:01:46;;;;;;;3.65;1.52;;;11.10;95.60;;;;;;4895282;29;20572;-84
2021/12/01 12:04:40;;;;;;;2.38;0.70;;;11.10;95.60;;;;;;4910456;29;20044;-82
2021/12/01 12:07:11;;;;;;;5.40;2.65;;;11.10;95.80;;;;;;4960701;28;20463;-81
2021/12/01 12:09:39;;;;;;;1.08;0.45;;;11.10;95.80;;;;;;4974480;28;20056;-83
2021/12/01 12:12:13;;;;;;;1.58;0.50;;;11.20;96.00;;;;;;4976171;28;20528;-86
2021/12/01 12:14:55;;;;;;;0.90;0.30;;;11.20;95.90;;;;;;4981806;28;20054;-85
2021/12/01 12:17:34;;;;;;;0.85;0.30;;;11.30;96.00;;;;;;4992199;28;20063;-84
2021/12/01 12:20:15;;;;;;;1.63;0.55;;;11.40;96.00;;;;;;4978098;28;20148;-84
2021/12/01 12:23:12;;;;;;;1.45;0.50;;;11.50;96.00;;;;;;4990974;28;20062;-85
2021/12/01 12:25:52;;;;;;;1.13;0.50;;;11.60;95.70;;;;;;4875861;29;20136;-85
2021/12/01 12:28:29;;;;;;;3.03;0.40;;;11.80;95.60;;;;;;4942278;29;20051;-84
2021/12/01 12:31:00;;;;;;;1.00;0.40;;;11.80;95.10;;;;;;4962052;28;20051;-84
2021/12/01 12:33:31;;;;;;;1.15;0.40;;;11.80;95.20;;;;;;4974242;28;20133;-85
2021/12/01 12:36:05;;;;;;;0.70;0.30;;;11.70;95.20;;;;;;4972907;28;20061;-83
2021/12/01 12:38:33;;;;;;;2.00;0.87;;;11.70;95.20;;;;;;4974329;28;20529;-86
2021/12/01 12:41:10;;;;;;;4.10;1.73;;;11.60;95.10;;;;;;4973238;28;20051;-84
2021/12/01 12:43:42;;;;;;;1.77;0.70;;;11.60;95.40;;;;;;4975531;28;20054;-86
2021/12/01 12:46:15;;;;;;;1.48;0.40;;;11.50;95.50;;;;;;4976356;28;20101;-86
2021/12/01 12:48:45;;;;;;;1.50;0.38;;;11.50;95.60;;;;;;4973267;28;20059;-79
2021/12/01 12:51:38;;;;;;;0.60;0.30;;;11.40;95.50;;;;;;4965120;28;20069;-78
2021/12/01 12:54:17;;;;;;;1.45;0.40;;;11.40;95.90;;;;;;4957248;28;20090;-77
2021/12/01 12:56:55;;;;;;;1.42;0.43;;;11.40;95.80;;;;;;4962996;28;20055;-77
2021/12/01 12:59:39;;;;;;;1.42;0.50;;;11.40;95.80;;;;;;4953212;29;20135;-79
2021/12/01 13:02:32;;;;;;;1.00;0.30;;;11.30;95.90;;;;;;4963207;28;20058;-78
2021/12/01 13:05:05;;;;;;;0.95;0.30;;;11.30;96.20;;;;;;4972785;28;20142;-77
2021/12/01 13:07:46;;;;;;;1.67;0.50;;;11.30;96.40;;;;;;4973069;28;20397;-78
2021/12/01 13:10:22;;;;;;;1.30;0.43;;;11.30;96.50;;;;;;4972408;28;20440;-78
2021/12/01 13:12:58;;;;;;;1.30;0.30;;;11.20;96.90;;;;;;4972453;28;20267;-79
2021/12/01 13:15:41;;;;;;;0.60;0.20;;;11.20;96.70;;;;;;4971673;28;20090;-79
2021/12/01 13:18:12;;;;;;;1.05;0.40;;;11.10;97.30;;;;;;4972206;28;20531;-79
2021/12/01 13:20:42;;;;;;;2.05;0.52;;;11.00;97.30;;;;;;4972102;28;20471;-80
2021/12/01 13:23:19;;;;;;;1.35;0.35;;;11.00;97.30;;;;;;4972184;28;20425;-79
2021/12/01 13:26:08;;;;;;;0.90;0.30;;;10.90;97.40;;;;;;4971839;28;20145;-80
2021/12/01 13:28:46;;;;;;;0.95;0.35;;;10.90;97.60;;;;;;4972014;28;20575;-80
2021/12/01 13:31:17;;;;;;;10.27;4.43;;;10.90;98.00;;;;;;4972099;28;20835;-79
2021/12/01 13:34:06;;;;;;;4.47;1.90;;;10.80;98.10;;;;;;4971919;28;20046;-79
2021/12/01 13:36:38;;;;;;;1.50;0.50;;;10.80;98.20;;;;;;4971857;28;20134;-80
2021/12/01 13:39:13;;;;;;;1.20;0.40;;;10.80;97.90;;;;;;4971441;28;20170;-79
2021/12/01 13:41:44;;;;;;;0.40;0.20;;;10.70;98.10;;;;;;4971713;28;20054;-79
2021/12/01 13:44:15;;;;;;;0.93;0.40;;;10.70;98.30;;;;;;4972176;28;20050;-79
2021/12/01 13:46:44;;;;;;;1.48;0.60;;;10.70;98.50;;;;;;4971700;28;20411;-79
2021/12/01 13:49:11;;;;;;;1.15;0.40;;;10.60;98.70;;;;;;4971135;28;20061;-78
2021/12/01 13:51:43;;;;;;;1.08;0.57;;;10.60;98.80;;;;;;4971675;28;20046;-78
2021/12/01 13:54:22;;;;;;;1.67;0.40;;;10.60;99.00;;;;;;4967422;28;20054;-78
2021/12/01 13:57:09;;;;;;;0.85;0.30;;;10.60;99.10;;;;;;4971391;28;20137;-77
2021/12/01 13:59:45;;;;;;;0.77;0.30;;;10.50;98.90;;;;;;4971282;28;20133;-80
2021/12/01 14:02:21;;;;;;;3.22;1.00;;;10.50;99.10;;;;;;4971455;28;20137;-80
2021/12/01 14:04:50;;;;;;;1.13;0.40;;;10.50;99.20;;;;;;4971172;28;20051;-78
2021/12/01 14:07:17;;;;;;;0.80;0.32;;;10.40;99.10;;;;;;4971669;28;20400;-79
2021/12/01 14:09:57;;;;;;;2.05;0.50;;;10.40;99.20;;;;;;4970980;28;20244;-78
2021/12/01 14:12:53;;;;;;;0.77;0.38;;;10.30;99.50;;;;;;4967237;28;20126;-79
2021/12/01 14:15:21;;;;;;;1.58;0.55;;;10.30;99.90;;;;;;4970794;28;20158;-77
2021/12/01 14:17:48;;;;;;;0.63;0.40;;;10.20;99.90;;;;;;4971262;28;20051;-78
2021/12/01 14:20:15;;;;;;;1.17;0.40;;;10.10;99.90;;;;;;4970872;28;20058;-77
2021/12/01 14:22:45;;;;;;;0.68;0.30;;;10.10;99.90;;;;;;4970933;28;20584;-78
2021/12/01 14:25:17;;;;;;;2.15;0.60;;;10.00;99.90;;;;;;4956630;28;20466;-78
2021/12/01 14:27:44;;;;;;;2.53;0.60;;;10.00;99.90;;;;;;4955294;28;20401;-77
2021/12/01 14:30:15;;;;;;;1.15;0.50;;;9.90;99.90;;;;;;4954083;29;20063;-78
2021/12/01 14:32:42;;;;;;;1.73;0.50;;;9.90;99.90;;;;;;4951519;29;20051;-79
2021/12/01 14:35:10;;;;;;;0.70;0.40;;;9.90;99.90;;;;;;4954923;28;20130;-78
2021/12/01 14:37:38;;;;;;;1.20;0.40;;;9.90;99.90;;;;;;4970650;28;20126;-79
2021/12/01 14:40:10;;;;;;;1.90;0.60;;;9.90;99.90;;;;;;4970449;28;20050;-79
2021/12/01 14:42:44;;;;;;;1.38;0.45;;;9.90;99.90;;;;;;4970815;28;20415;-79
2021/12/01 14:45:13;;;;;;;1.08;0.47;;;9.90;99.90;;;;;;4970091;28;20105;-80
2021/12/01 14:47:41;;;;;;;1.80;0.60;;;9.90;99.90;;;;;;4970682;28;20055;-80
2021/12/01 14:50:20;;;;;;;1.98;0.60;;;9.80;99.90;;;;;;4968759;28;20518;-80
2021/12/01 14:52:47;;;;;;;2.10;0.63;;;9.80;99.90;;;;;;4970853;28;20051;-79
2021/12/01 14:55:22;;;;;;;2.20;0.60;;;9.80;99.90;;;;;;4970715;28;20047;-79
2021/12/01 14:57:54;;;;;;;1.83;0.70;;;9.80;99.90;;;;;;4974054;28;20046;-78
2021/12/01 15:00:26;;;;;;;1.27;0.55;;;9.80;99.90;;;;;;4975090;28;20082;-79
2021/12/01 15:02:53;;;;;;;3.33;0.60;;;9.80;99.90;;;;;;4974834;28;20086;-80
2021/12/01 15:05:22;;;;;;;1.55;0.70;;;9.80;99.90;;;;;;4975199;28;20078;-78
2021/12/01 15:08:06;;;;;;;1.70;0.60;;;9.80;99.90;;;;;;4970439;28;20174;-78
2021/12/01 15:10:39;;;;;;;2.25;0.70;;;9.80;99.90;;;;;;4951385;28;20054;-78
2021/12/01 15:13:14;;;;;;;1.77;0.70;;;9.70;99.90;;;;;;4950772;29;20055;-78
2021/12/01 15:15:48;;;;;;;2.05;0.60;;;9.70;99.90;;;;;;4950704;29;20058;-79
2021/12/01 15:18:22;;;;;;;3.10;0.77;;;9.70;99.90;;;;;;4950217;29;20062;-81
2021/12/01 15:21:03;;;;;;;1.90;0.70;;;9.70;99.90;;;;;;4950633;29;20051;-79
2021/12/01 15:23:46;;;;;;;1.75;0.70;;;9.60;99.90;;;;;;4954069;28;20506;-78
2021/12/01 15:26:14;;;;;;;1.85;0.60;;;9.60;99.90;;;;;;4970065;28;20093;-80
2021/12/01 15:28:44;;;;;;;1.50;0.60;;;9.60;99.90;;;;;;4968828;28;20580;-79
2021/12/01 15:31:12;;;;;;;1.85;0.80;;;9.60;99.90;;;;;;4969402;28;20564;-79
2021/12/01 15:33:40;;;;;;;2.38;0.63;;;9.60;99.90;;;;;;4968883;28;20141;-79
2021/12/01 15:36:08;;;;;;;1.42;0.57;;;9.60;99.90;;;;;;4968189;28;20058;-80
2021/12/01 15:38:36;;;;;;;2.60;0.88;;;9.60;99.90;;;;;;4971242;28;20051;-79
2021/12/01 15:41:04;;;;;;;2.25;0.70;;;9.50;99.90;;;;;;4972629;28;20142;-79
2021/12/01 15:43:31;;;;;;;2.72;0.70;;;9.50;99.90;;;;;;4971573;28;20165;-77
2021/12/01 15:45:59;;;;;;;3.15;0.90;;;9.50;99.90;;;;;;4973861;28;20197;-79
2021/12/01 15:48:26;;;;;;;2.10;0.60;;;9.50;99.90;;;;;;4972650;28;20086;-78
2021/12/01 15:50:54;;;;;;;2.83;0.95;;;9.50;99.90;;;;;;4971925;28;20138;-78
2021/12/01 15:53:22;;;;;;;2.13;0.90;;;9.50;99.90;;;;;;4971255;28;20676;-78
2021/12/01 15:55:50;;;;;;;2.60;0.98;;;9.50;99.90;;;;;;4972250;28;20551;-79
2021/12/01 15:58:21;;;;;;;2.78;0.80;;;9.50;99.90;;;;;;4965923;28;20146;-77
2021/12/01 16:00:49;;;;;;;1.73;0.70;;;9.50;99.90;;;;;;4970338;28;20089;-77
2021/12/01 16:03:18;;;;;;;2.42;0.80;;;9.50;99.90;;;;;;4969360;28;20090;-80
2021/12/01 16:05:45;;;;;;;2.78;0.80;;;9.50;99.90;;;;;;4972462;28;20604;-76
2021/12/01 16:08:13;;;;;;;1.63;0.60;;;9.50;99.90;;;;;;4972924;28;20156;-77
2021/12/01 16:10:42;;;;;;;3.38;0.90;;;9.50;99.90;;;;;;4971739;28;20055;-78
2021/12/01 16:13:09;;;;;;;2.45;0.90;;;9.50;99.90;;;;;;4970839;28;20094;-79
2021/12/01 16:15:38;;;;;;;1.95;0.80;;;9.50;99.90;;;;;;4971322;28;20062;-78
2021/12/01 16:18:07;;;;;;;1.88;0.70;;;9.50;99.90;;;;;;4953568;28;20051;-78
2021/12/01 16:20:36;;;;;;;2.83;1.08;;;9.50;99.90;;;;;;4960019;28;20081;-79
2021/12/01 16:23:04;;;;;;;3.05;1.20;;;9.50;99.90;;;;;;4973011;28;20054;-79
2021/12/01 16:25:32;;;;;;;3.08;1.10;;;9.50;99.90;;;;;;4971388;28;20488;-79
2021/12/01 16:27:59;;;;;;;2.95;0.95;;;9.50;99.90;;;;;;4972636;28;20070;-77
2021/12/01 16:30:30;;;;;;;1.80;0.73;;;9.50;99.90;;;;;;4975181;28;20134;-77
2021/12/01 16:32:59;;;;;;;3.03;0.80;;;9.50;99.90;;;;;;4975706;28;20083;-81
2021/12/01 16:35:31;;;;;;;2.75;0.90;;;9.40;99.90;;;;;;4975064;28;20141;-78
2021/12/01 16:38:08;;;;;;;3.08;1.10;;;9.40;99.90;;;;;;4972622;28;20109;-79
2021/12/01 16:40:37;;;;;;;2.33;0.73;;;9.40;99.90;;;;;;4973099;28;20051;-78
2021/12/01 16:43:07;;;;;;;2.70;1.08;;;9.40;99.90;;;;;;4972123;28;20058;-77
2021/12/01 16:45:34;;;;;;;1.70;0.70;;;9.40;99.90;;;;;;4970128;28;20046;-79
2021/12/01 16:48:02;;;;;;;2.08;0.98;;;9.40;99.90;;;;;;4971950;28;20057;-79
2021/12/01 16:50:30;;;;;;;2.60;0.90;;;9.40;99.90;;;;;;4970967;28;20065;-78
2021/12/01 16:53:00;;;;;;;3.03;1.33;;;9.30;99.90;;;;;;4972576;28;20483;-80
2021/12/01 16:55:30;;;;;;;2.70;0.95;;;9.30;99.90;;;;;;4971355;28;20047;-78
2021/12/01 16:57:59;;;;;;;1.30;0.60;;;9.30;99.90;;;;;;4984144;28;20492;-78
2021/12/01 17:00:30;;;;;;;2.30;0.57;;;9.30;99.90;;;;;;4971428;28;20078;-80
2021/12/01 17:03:05;;;;;;;1.17;0.50;;;9.30;99.90;;;;;;4972035;28;20551;-78
2021/12/01 17:05:34;;;;;;;1.00;0.40;;;9.30;99.90;;;;;;4971208;28;20042;-79
2021/12/01 17:08:29;;;;;;;1.83;0.45;;;9.20;99.90;;;;;;4979709;28;20577;-78
2021/12/01 17:11:00;;;;;;;1.42;0.55;;;9.30;99.90;;;;;;4972292;28;20070;-81
2021/12/01 17:13:31;;;;;;;1.30;0.50;;;9.20;99.90;;;;;;4971728;28;20055;-78
2021/12/01 17:15:59;;;;;;;1.08;0.60;;;9.20;99.90;;;;;;4970765;28;20069;-79
2021/12/01 17:18:29;;;;;;;1.48;0.50;;;9.20;99.90;;;;;;4971770;28;20129;-78
2021/12/01 17:20:57;;;;;;;2.20;0.50;;;9.20;99.90;;;;;;4970689;28;20081;-78
2021/12/01 17:23:29;;;;;;;2.28;0.60;;;9.20;99.90;;;;;;4963620;28;20046;-77
2021/12/01 17:25:58;;;;;;;1.42;0.55;;;9.20;99.90;;;;;;4985553;28;20061;-80
2021/12/01 17:28:26;;;;;;;1.48;0.60;;;9.20;99.90;;;;;;4988732;28;20116;-79
2021/12/01 17:31:00;;;;;;;1.77;0.70;;;9.20;99.90;;;;;;4970651;28;20510;-78
2021/12/01 17:33:28;;;;;;;1.52;0.60;;;9.20;99.90;;;;;;4962354;28;20047;-80
2021/12/01 17:35:58;;;;;;;1.23;0.50;;;9.10;99.90;;;;;;4951630;29;20066;-79
2021/12/01 17:38:28;;;;;;;1.77;0.85;;;9.10;99.90;;;;;;4952740;29;20051;-79
2021/12/01 17:40:56;;;;;;;1.90;0.70;;;9.10;99.90;;;;;;4953151;29;20588;-80
2021/12/01 17:43:26;;;;;;;1.40;0.60;;;9.10;99.90;;;;;;4952575;29;20134;-78
2021/12/01 17:45:53;;;;;;;1.73;0.60;;;9.10;99.90;;;;;;4953682;29;20051;-79
2021/12/01 17:48:21;;;;;;;1.90;0.80;;;9.10;99.90;;;;;;4964966;28;20073;-80
2021/12/01 17:50:49;;;;;;;2.35;0.75;;;9.10;99.90;;;;;;4953541;28;20062;-79
2021/12/01 17:53:16;;;;;;;2.55;0.80;;;9.10;99.90;;;;;;4952705;28;20058;-80
2021/12/01 17:55:45;;;;;;;2.03;0.70;;;9.00;99.90;;;;;;4954785;28;20146;-79
2021/12/01 17:58:12;;;;;;;2.20;0.80;;;9.00;99.90;;;;;;4978168;28;20065;-79
2021/12/01 18:00:40;;;;;;;2.13;0.75;;;9.00;99.90;;;;;;4959340;28;20125;-76
2021/12/01 18:03:08;;;;;;;1.85;0.80;;;9.00;99.90;;;;;;4970290;28;20494;-78
2021/12/01 18:05:38;;;;;;;1.85;0.70;;;9.00;99.90;;;;;;4971143;28;20074;-80
2021/12/01 18:08:07;;;;;;;1.80;0.75;;;9.00;99.90;;;;;;4969054;28;20047;-79
2021/12/01 18:10:37;;;;;;;1.58;0.65;;;8.90;99.90;;;;;;4974754;28;20050;-80
2021/12/01 18:13:06;;;;;;;1.63;0.75;;;8.90;99.90;;;;;;4988136;28;20054;-77
2021/12/01 18:15:34;;;;;;;1.23;0.60;;;8.90;99.90;;;;;;4961865;28;20127;-77
2021/12/01 18:18:01;;;;;;;2.25;0.70;;;8.90;99.90;;;;;;4966247;28;20043;-79
2021/12/01 18:20:28;;;;;;;1.92;0.60;;;8.80;99.90;;;;;;4968675;28;20440;-80
2021/12/01 18:22:55;;;;;;;1.88;0.70;;;8.80;99.90;;;;;;4956960;28;20739;-78
2021/12/01 18:25:22;;;;;;;3.05;0.90;;;8.80;99.90;;;;;;4968546;28;20086;-82
2021/12/01 18:27:50;;;;;;;1.85;0.70;;;8.80;99.90;;;;;;4979356;28;20550;-77
2021/12/01 18:30:19;;;;;;;1.73;0.70;;;8.80;99.90;;;;;;4966061;28;20050;-79
2021/12/01 18:32:47;;;;;;;7.03;2.78;;;8.80;99.90;;;;;;4969982;28;20055;-79
2021/12/01 18:35:14;;;;;;;5.13;1.90;;;8.80;99.90;;;;;;4968894;28;20398;-79
2021/12/01 18:37:43;;;;;;;10.38;4.55;;;8.80;99.90;;;;;;4953098;28;20390;-79
2021/12/01 18:40:12;;;;;;;2.83;0.90;;;8.80;99.90;;;;;;4952523;28;20055;-79
2021/12/01 18:42:40;;;;;;;1.77;0.60;;;8.80;99.90;;;;;;4969547;28;20062;-80
2021/12/01 18:45:09;;;;;;;1.95;0.73;;;8.80;99.90;;;;;;4956859;28;20142;-78
2021/12/01 18:47:39;;;;;;;1.92;0.70;;;8.70;99.90;;;;;;4967022;28;20560;-81
2021/12/01 18:50:08;;;;;;;3.20;0.68;;;8.70;99.90;;;;;;4968307;28;20043;-78
2021/12/01 18:52:37;;;;;;;1.58;0.65;;;8.70;99.90;;;;;;4966049;28;20051;-78
2021/12/01 18:55:06;;;;;;;2.60;0.73;;;8.60;99.90;;;;;;4952955;28;20497;-80
2021/12/01 18:57:33;;;;;;;1.83;0.70;;;8.60;99.90;;;;;;4949987;28;20050;-78
2021/12/01 19:00:02;;;;;;;1.33;0.60;;;8.60;99.90;;;;;;4951248;28;20043;-79
2021/12/01 19:02:32;;;;;;;1.90;0.70;;;8.60;99.90;;;;;;4955376;28;20054;-78
2021/12/01 19:05:00;;;;;;;1.70;0.70;;;8.70;99.90;;;;;;4969332;28;20054;-79
2021/12/01 19:07:27;;;;;;;2.50;0.80;;;8.60;99.90;;;;;;4966163;28;20141;-79
2021/12/01 19:09:55;;;;;;;2.13;0.68;;;8.60;99.90;;;;;;4969091;28;20106;-80
2021/12/01 19:12:22;;;;;;;1.80;0.75;;;8.60;99.90;;;;;;4963402;28;20057;-79